sensor_id;sensor_type;location;lat;lon;timestamp;P1;durP1;ratioP1;P2;durP2;ratioP2
3225;SDS011;1625;49.884;8.666;2022-11-15T00:00:45;4.50;;;4.10;;
3225;SDS011;1625;49.884;8.666;2022-11-15T00:03:12;5.33;;;4.80;;
3225;SDS011;1625;49.884;8.666;2022-11-15T00:05:39;5.20;;;4.70;;
3225;SDS011;1625;49.884;8.666;2022-11-15T00:08:05;5.50;;;4.80;;
3225;SDS011;1625;49.884;8.666;2022-11-15T00:10:31;6.43;;;5.60;;
3225;SDS011;1625;49.884;8.666;2022-11-15T00:12:56;5.67;;;5.20;;
3225;SDS011;1625;49.884;8.666;2022-11-15T00:15:22;5.33;;;4.83;;
3225;SDS011;1625;49.884;8.666;2022-11-15T00:17:50;5.37;;;4.13;;
3225;SDS011;1625;49.884;8.666;2022-11-15T00:20:16;5.60;;;5.00;;
3225;SDS011;1625;49.884;8.666;2022-11-15T00:22:42;5.10;;;4.60;;
3225;SDS011;1625;49.884;8.666;2022-11-15T00:25:08;5.60;;;4.97;;
3225;SDS011;1625;49.884;8.666;2022-11-15T00:27:33;6.10;;;5.30;;
3225;SDS011;1625;49.884;8.666;2022-11-15T00:29:59;6.30;;;5.43;;
3225;SDS011;1625;49.884;8.666;2022-11-15T00:32:25;5.73;;;5.13;;
3225;SDS011;1625;49.884;8.666;2022-11-15T00:34:51;5.73;;;5.10;;
3225;SDS011;1625;49.884;8.666;2022-11-15T00:37:16;5.57;;;4.53;;
3225;SDS011;1625;49.884;8.666;2022-11-15T00:39:42;5.70;;;4.83;;
3225;SDS011;1625;49.884;8.666;2022-11-15T00:42:07;7.40;;;5.07;;
3225;SDS011;1625;49.884;8.666;2022-11-15T00:44:33;5.97;;;5.20;;
3225;SDS011;1625;49.884;8.666;2022-11-15T00:46:58;4.73;;;4.33;;
3225;SDS011;1625;49.884;8.666;2022-11-15T00:49:24;6.63;;;5.73;;
3225;SDS011;1625;49.884;8.666;2022-11-15T00:51:49;6.83;;;5.00;;
3225;SDS011;1625;49.884;8.666;2022-11-15T00:54:15;5.83;;;4.90;;
3225;SDS011;1625;49.884;8.666;2022-11-15T00:56:40;5.10;;;4.70;;
3225;SDS011;1625;49.884;8.666;2022-11-15T00:59:06;4.90;;;4.50;;
3225;SDS011;1625;49.884;8.666;2022-11-15T01:01:31;6.50;;;5.23;;
3225;SDS011;1625;49.884;8.666;2022-11-15T01:03:57;6.13;;;4.73;;
3225;SDS011;1625;49.884;8.666;2022-11-15T01:06:23;5.80;;;5.20;;
3225;SDS011;1625;49.884;8.666;2022-11-15T01:08:48;4.73;;;4.27;;
3225;SDS011;1625;49.884;8.666;2022-11-15T01:11:14;5.03;;;4.50;;
3225;SDS011;1625;49.884;8.666;2022-11-15T01:13:39;5.27;;;4.77;;
3225;SDS011;1625;49.884;8.666;2022-11-15T01:16:06;5.93;;;5.40;;
3225;SDS011;1625;49.884;8.666;2022-11-15T01:18:37;5.63;;;5.13;;
3225;SDS011;1625;49.884;8.666;2022-11-15T01:21:06;5.40;;;4.63;;
3225;SDS011;1625;49.884;8.666;2022-11-15T01:23:33;4.97;;;4.57;;
3225;SDS011;1625;49.884;8.666;2022-11-15T01:25:59;4.80;;;4.40;;
3225;SDS011;1625;49.884;8.666;2022-11-15T01:28:29;5.50;;;5.00;;
3225;SDS011;1625;49.884;8.666;2022-11-15T01:30:59;5.00;;;4.50;;
3225;SDS011;1625;49.884;8.666;2022-11-15T01:33:29;5.23;;;4.73;;
3225;SDS011;1625;49.884;8.666;2022-11-15T01:35:54;4.57;;;4.20;;
3225;SDS011;1625;49.884;8.666;2022-11-15T01:38:20;5.30;;;4.50;;
3225;SDS011;1625;49.884;8.666;2022-11-15T01:40:46;4.43;;;4.10;;
3225;SDS011;1625;49.884;8.666;2022-11-15T01:43:18;5.87;;;4.53;;
3225;SDS011;1625;49.884;8.666;2022-11-15T01:45:52;6.63;;;4.70;;
3225;SDS011;1625;49.884;8.666;2022-11-15T01:48:26;4.37;;;3.97;;
3225;SDS011;1625;49.884;8.666;2022-11-15T01:50:57;4.87;;;4.47;;
3225;SDS011;1625;49.884;8.666;2022-11-15T01:53:23;5.60;;;5.10;;
3225;SDS011;1625;49.884;8.666;2022-11-15T01:55:51;5.13;;;4.63;;
3225;SDS011;1625;49.884;8.666;2022-11-15T01:58:18;5.37;;;4.80;;
3225;SDS011;1625;49.884;8.666;2022-11-15T02:00:43;5.23;;;4.80;;
3225;SDS011;1625;49.884;8.666;2022-11-15T02:03:09;5.70;;;4.53;;
3225;SDS011;1625;49.884;8.666;2022-11-15T02:05:35;4.80;;;4.30;;
3225;SDS011;1625;49.884;8.666;2022-11-15T02:08:02;5.63;;;4.43;;
3225;SDS011;1625;49.884;8.666;2022-11-15T02:10:28;5.30;;;4.80;;
3225;SDS011;1625;49.884;8.666;2022-11-15T02:12:53;6.00;;;5.23;;
3225;SDS011;1625;49.884;8.666;2022-11-15T02:15:21;6.07;;;5.00;;
3225;SDS011;1625;49.884;8.666;2022-11-15T02:20:35;6.10;;;5.50;;
3225;SDS011;1625;49.884;8.666;2022-11-15T02:29:14;4.90;;;4.50;;
3225;SDS011;1625;49.884;8.666;2022-11-15T02:32:06;5.40;;;4.90;;
3225;SDS011;1625;49.884;8.666;2022-11-15T02:40:07;5.33;;;4.83;;
3225;SDS011;1625;49.884;8.666;2022-11-15T02:42:43;5.23;;;4.67;;
3225;SDS011;1625;49.884;8.666;2022-11-15T02:45:34;5.07;;;4.57;;
3225;SDS011;1625;49.884;8.666;2022-11-15T02:48:04;5.37;;;4.97;;
3225;SDS011;1625;49.884;8.666;2022-11-15T02:50:32;5.73;;;4.23;;
3225;SDS011;1625;49.884;8.666;2022-11-15T02:52:59;4.67;;;4.17;;
3225;SDS011;1625;49.884;8.666;2022-11-15T02:55:32;4.77;;;4.33;;
3225;SDS011;1625;49.884;8.666;2022-11-15T03:00:55;4.43;;;4.13;;
3225;SDS011;1625;49.884;8.666;2022-11-15T03:03:45;6.43;;;4.63;;
3225;SDS011;1625;49.884;8.666;2022-11-15T03:06:42;4.33;;;4.03;;
3225;SDS011;1625;49.884;8.666;2022-11-15T03:09:24;4.93;;;4.50;;
3225;SDS011;1625;49.884;8.666;2022-11-15T03:11:56;5.10;;;4.30;;
3225;SDS011;1625;49.884;8.666;2022-11-15T03:14:31;5.30;;;4.80;;
3225;SDS011;1625;49.884;8.666;2022-11-15T03:17:25;4.70;;;4.30;;
3225;SDS011;1625;49.884;8.666;2022-11-15T03:19:56;6.77;;;4.43;;
3225;SDS011;1625;49.884;8.666;2022-11-15T03:22:24;4.60;;;4.03;;
3225;SDS011;1625;49.884;8.666;2022-11-15T03:24:53;4.97;;;4.13;;
3225;SDS011;1625;49.884;8.666;2022-11-15T03:27:23;5.80;;;4.73;;
3225;SDS011;1625;49.884;8.666;2022-11-15T03:29:53;5.00;;;4.50;;
3225;SDS011;1625;49.884;8.666;2022-11-15T03:32:25;4.97;;;4.10;;
3225;SDS011;1625;49.884;8.666;2022-11-15T03:37:23;5.33;;;4.83;;
3225;SDS011;1625;49.884;8.666;2022-11-15T03:39:54;5.33;;;4.80;;
3225;SDS011;1625;49.884;8.666;2022-11-15T03:42:35;6.60;;;4.70;;
3225;SDS011;1625;49.884;8.666;2022-11-15T03:47:55;4.60;;;4.20;;
3225;SDS011;1625;49.884;8.666;2022-11-15T03:50:32;5.83;;;4.67;;
3225;SDS011;1625;49.884;8.666;2022-11-15T03:52:59;5.27;;;4.77;;
3225;SDS011;1625;49.884;8.666;2022-11-15T03:55:25;4.83;;;4.17;;
3225;SDS011;1625;49.884;8.666;2022-11-15T03:57:52;5.07;;;4.50;;
3225;SDS011;1625;49.884;8.666;2022-11-15T04:00:20;5.70;;;5.20;;
3225;SDS011;1625;49.884;8.666;2022-11-15T04:02:46;4.83;;;4.30;;
3225;SDS011;1625;49.884;8.666;2022-11-15T04:05:12;6.50;;;4.83;;
3225;SDS011;1625;49.884;8.666;2022-11-15T04:07:37;4.77;;;4.37;;
3225;SDS011;1625;49.884;8.666;2022-11-15T04:10:03;4.83;;;4.33;;
3225;SDS011;1625;49.884;8.666;2022-11-15T04:12:30;5.07;;;4.50;;
3225;SDS011;1625;49.884;8.666;2022-11-15T04:15:01;6.37;;;5.67;;
3225;SDS011;1625;49.884;8.666;2022-11-15T04:17:32;6.17;;;4.83;;
3225;SDS011;1625;49.884;8.666;2022-11-15T04:19:58;5.40;;;4.90;;
3225;SDS011;1625;49.884;8.666;2022-11-15T04:22:43;6.00;;;5.50;;
3225;SDS011;1625;49.884;8.666;2022-11-15T04:25:27;5.57;;;5.17;;
3225;SDS011;1625;49.884;8.666;2022-11-15T04:27:53;5.70;;;4.87;;
3225;SDS011;1625;49.884;8.666;2022-11-15T04:30:18;5.80;;;5.30;;
3225;SDS011;1625;49.884;8.666;2022-11-15T04:32:44;5.27;;;4.77;;
3225;SDS011;1625;49.884;8.666;2022-11-15T04:35:09;5.30;;;4.80;;
3225;SDS011;1625;49.884;8.666;2022-11-15T04:37:35;5.03;;;4.50;;
3225;SDS011;1625;49.884;8.666;2022-11-15T04:40:00;5.10;;;4.70;;
3225;SDS011;1625;49.884;8.666;2022-11-15T04:42:26;5.17;;;4.70;;
3225;SDS011;1625;49.884;8.666;2022-11-15T04:44:51;5.03;;;4.53;;
3225;SDS011;1625;49.884;8.666;2022-11-15T04:47:17;5.40;;;4.90;;
3225;SDS011;1625;49.884;8.666;2022-11-15T04:49:43;6.10;;;4.93;;
3225;SDS011;1625;49.884;8.666;2022-11-15T04:52:09;5.77;;;5.27;;
3225;SDS011;1625;49.884;8.666;2022-11-15T04:54:34;5.90;;;5.40;;
3225;SDS011;1625;49.884;8.666;2022-11-15T04:57:00;7.60;;;5.90;;
3225;SDS011;1625;49.884;8.666;2022-11-15T04:59:25;6.17;;;5.57;;
3225;SDS011;1625;49.884;8.666;2022-11-15T05:01:51;5.83;;;5.30;;
3225;SDS011;1625;49.884;8.666;2022-11-15T05:04:16;5.77;;;5.27;;
3225;SDS011;1625;49.884;8.666;2022-11-15T05:06:48;6.30;;;5.70;;
3225;SDS011;1625;49.884;8.666;2022-11-15T05:09:16;6.03;;;5.53;;
3225;SDS011;1625;49.884;8.666;2022-11-15T05:11:42;7.10;;;6.10;;
3225;SDS011;1625;49.884;8.666;2022-11-15T05:14:08;6.33;;;5.47;;
3225;SDS011;1625;49.884;8.666;2022-11-15T05:16:34;6.70;;;6.10;;
3225;SDS011;1625;49.884;8.666;2022-11-15T05:19:00;7.30;;;6.60;;
3225;SDS011;1625;49.884;8.666;2022-11-15T05:21:26;7.27;;;6.67;;
3225;SDS011;1625;49.884;8.666;2022-11-15T05:23:52;7.87;;;6.47;;
3225;SDS011;1625;49.884;8.666;2022-11-15T05:26:17;5.87;;;5.37;;
3225;SDS011;1625;49.884;8.666;2022-11-15T05:28:43;7.00;;;6.20;;
3225;SDS011;1625;49.884;8.666;2022-11-15T05:31:13;6.43;;;5.83;;
3225;SDS011;1625;49.884;8.666;2022-11-15T05:33:40;7.47;;;6.80;;
3225;SDS011;1625;49.884;8.666;2022-11-15T05:36:09;6.80;;;6.20;;
3225;SDS011;1625;49.884;8.666;2022-11-15T05:38:45;7.43;;;6.63;;
3225;SDS011;1625;49.884;8.666;2022-11-15T05:41:11;6.60;;;6.00;;
3225;SDS011;1625;49.884;8.666;2022-11-15T05:43:38;7.17;;;5.87;;
3225;SDS011;1625;49.884;8.666;2022-11-15T05:46:11;7.30;;;6.20;;
3225;SDS011;1625;49.884;8.666;2022-11-15T05:48:39;6.70;;;6.03;;
3225;SDS011;1625;49.884;8.666;2022-11-15T05:51:10;6.47;;;5.77;;
3225;SDS011;1625;49.884;8.666;2022-11-15T05:53:38;6.60;;;6.10;;
3225;SDS011;1625;49.884;8.666;2022-11-15T05:56:04;5.97;;;5.50;;
3225;SDS011;1625;49.884;8.666;2022-11-15T05:58:32;6.73;;;5.87;;
3225;SDS011;1625;49.884;8.666;2022-11-15T06:00:58;7.10;;;6.30;;
3225;SDS011;1625;49.884;8.666;2022-11-15T06:03:24;6.13;;;5.50;;
3225;SDS011;1625;49.884;8.666;2022-11-15T06:05:50;6.90;;;6.30;;
3225;SDS011;1625;49.884;8.666;2022-11-15T06:08:15;6.33;;;5.77;;
3225;SDS011;1625;49.884;8.666;2022-11-15T06:10:41;6.20;;;5.70;;
3225;SDS011;1625;49.884;8.666;2022-11-15T06:13:06;6.10;;;5.50;;
3225;SDS011;1625;49.884;8.666;2022-11-15T06:15:32;6.07;;;5.43;;
3225;SDS011;1625;49.884;8.666;2022-11-15T06:18:01;6.40;;;5.80;;
3225;SDS011;1625;49.884;8.666;2022-11-15T06:20:34;7.10;;;6.40;;
3225;SDS011;1625;49.884;8.666;2022-11-15T06:23:01;6.13;;;5.57;;
3225;SDS011;1625;49.884;8.666;2022-11-15T06:25:28;6.43;;;5.93;;
3225;SDS011;1625;49.884;8.666;2022-11-15T06:27:55;6.90;;;6.30;;
3225;SDS011;1625;49.884;8.666;2022-11-15T06:30:21;6.97;;;5.60;;
3225;SDS011;1625;49.884;8.666;2022-11-15T06:32:48;6.60;;;5.13;;
3225;SDS011;1625;49.884;8.666;2022-11-15T06:35:14;6.33;;;5.73;;
3225;SDS011;1625;49.884;8.666;2022-11-15T06:37:40;6.17;;;5.57;;
3225;SDS011;1625;49.884;8.666;2022-11-15T06:40:06;6.53;;;5.97;;
3225;SDS011;1625;49.884;8.666;2022-11-15T06:42:33;6.40;;;5.80;;
3225;SDS011;1625;49.884;8.666;2022-11-15T06:44:59;6.83;;;6.13;;
3225;SDS011;1625;49.884;8.666;2022-11-15T06:47:24;7.30;;;6.23;;
3225;SDS011;1625;49.884;8.666;2022-11-15T06:49:50;9.30;;;7.93;;
3225;SDS011;1625;49.884;8.666;2022-11-15T06:52:16;7.00;;;6.30;;
3225;SDS011;1625;49.884;8.666;2022-11-15T06:54:43;8.10;;;6.20;;
3225;SDS011;1625;49.884;8.666;2022-11-15T06:57:09;8.40;;;6.97;;
3225;SDS011;1625;49.884;8.666;2022-11-15T06:59:35;7.33;;;6.60;;
3225;SDS011;1625;49.884;8.666;2022-11-15T07:02:01;7.20;;;6.33;;
3225;SDS011;1625;49.884;8.666;2022-11-15T07:04:26;6.30;;;5.40;;
3225;SDS011;1625;49.884;8.666;2022-11-15T07:06:52;6.40;;;5.80;;
3225;SDS011;1625;49.884;8.666;2022-11-15T07:09:17;7.03;;;6.10;;
3225;SDS011;1625;49.884;8.666;2022-11-15T07:11:43;7.20;;;5.50;;
3225;SDS011;1625;49.884;8.666;2022-11-15T07:14:08;7.47;;;5.90;;
3225;SDS011;1625;49.884;8.666;2022-11-15T07:16:34;6.80;;;6.10;;
3225;SDS011;1625;49.884;8.666;2022-11-15T07:19:01;6.00;;;5.43;;
3225;SDS011;1625;49.884;8.666;2022-11-15T07:21:27;6.00;;;5.40;;
3225;SDS011;1625;49.884;8.666;2022-11-15T07:23:52;6.43;;;5.60;;
3225;SDS011;1625;49.884;8.666;2022-11-15T07:26:18;6.80;;;6.20;;
3225;SDS011;1625;49.884;8.666;2022-11-15T07:28:43;5.93;;;5.43;;
3225;SDS011;1625;49.884;8.666;2022-11-15T07:31:09;6.70;;;6.10;;
3225;SDS011;1625;49.884;8.666;2022-11-15T07:33:35;6.50;;;5.90;;
3225;SDS011;1625;49.884;8.666;2022-11-15T07:36:01;8.10;;;5.40;;
3225;SDS011;1625;49.884;8.666;2022-11-15T07:38:28;6.13;;;5.53;;
3225;SDS011;1625;49.884;8.666;2022-11-15T07:40:55;6.30;;;5.70;;
3225;SDS011;1625;49.884;8.666;2022-11-15T07:43:22;7.97;;;5.20;;
3225;SDS011;1625;49.884;8.666;2022-11-15T07:45:47;6.33;;;5.70;;
3225;SDS011;1625;49.884;8.666;2022-11-15T07:48:13;7.57;;;5.37;;
3225;SDS011;1625;49.884;8.666;2022-11-15T08:35:20;5.80;;;5.30;;
3225;SDS011;1625;49.884;8.666;2022-11-15T08:38:53;9.50;;;5.50;;
3225;SDS011;1625;49.884;8.666;2022-11-15T08:46:01;5.57;;;5.07;;
3225;SDS011;1625;49.884;8.666;2022-11-15T09:30:31;6.77;;;6.20;;
3225;SDS011;1625;49.884;8.666;2022-11-15T10:18:06;6.90;;;6.20;;
3225;SDS011;1625;49.884;8.666;2022-11-15T10:21:33;8.47;;;6.07;;
3225;SDS011;1625;49.884;8.666;2022-11-15T10:31:37;6.23;;;5.57;;
3225;SDS011;1625;49.884;8.666;2022-11-15T11:04:30;8.40;;;5.47;;
3225;SDS011;1625;49.884;8.666;2022-11-15T11:07:40;5.70;;;5.20;;
3225;SDS011;1625;49.884;8.666;2022-11-15T11:11:09;5.83;;;5.33;;
3225;SDS011;1625;49.884;8.666;2022-11-15T13:21:22;3.20;;;2.43;;
3225;SDS011;1625;49.884;8.666;2022-11-15T13:24:15;2.50;;;2.30;;
3225;SDS011;1625;49.884;8.666;2022-11-15T13:29:45;2.63;;;2.40;;
3225;SDS011;1625;49.884;8.666;2022-11-15T13:32:12;2.40;;;2.20;;
3225;SDS011;1625;49.884;8.666;2022-11-15T13:34:53;3.00;;;2.70;;
3225;SDS011;1625;49.884;8.666;2022-11-15T13:37:29;3.20;;;2.60;;
3225;SDS011;1625;49.884;8.666;2022-11-15T13:40:10;2.50;;;2.30;;
3225;SDS011;1625;49.884;8.666;2022-11-15T13:42:48;3.40;;;2.60;;
3225;SDS011;1625;49.884;8.666;2022-11-15T13:45:15;2.80;;;2.50;;
3225;SDS011;1625;49.884;8.666;2022-11-15T13:47:43;2.70;;;2.50;;
3225;SDS011;1625;49.884;8.666;2022-11-15T13:50:10;2.80;;;2.60;;
3225;SDS011;1625;49.884;8.666;2022-11-15T13:52:40;3.20;;;2.90;;
3225;SDS011;1625;49.884;8.666;2022-11-15T13:55:19;3.50;;;2.77;;
3225;SDS011;1625;49.884;8.666;2022-11-15T13:57:53;3.13;;;2.37;;
3225;SDS011;1625;49.884;8.666;2022-11-15T14:04:18;2.77;;;2.57;;
3225;SDS011;1625;49.884;8.666;2022-11-15T14:06:53;4.80;;;2.80;;
3225;SDS011;1625;49.884;8.666;2022-11-15T14:11:58;3.13;;;2.83;;
3225;SDS011;1625;49.884;8.666;2022-11-15T14:14:32;2.73;;;2.53;;
3225;SDS011;1625;49.884;8.666;2022-11-15T14:16:59;5.13;;;2.90;;
3225;SDS011;1625;49.884;8.666;2022-11-15T14:22:13;3.30;;;3.00;;
3225;SDS011;1625;49.884;8.666;2022-11-15T14:30:39;4.63;;;2.93;;
3225;SDS011;1625;49.884;8.666;2022-11-15T14:33:18;3.33;;;3.00;;
3225;SDS011;1625;49.884;8.666;2022-11-15T14:35:52;3.20;;;2.50;;
3225;SDS011;1625;49.884;8.666;2022-11-15T14:38:21;3.27;;;2.57;;
3225;SDS011;1625;49.884;8.666;2022-11-15T14:40:48;2.67;;;2.47;;
3225;SDS011;1625;49.884;8.666;2022-11-15T14:43:19;2.63;;;2.30;;
3225;SDS011;1625;49.884;8.666;2022-11-15T14:45:47;2.70;;;2.50;;
3225;SDS011;1625;49.884;8.666;2022-11-15T14:48:13;3.37;;;3.07;;
3225;SDS011;1625;49.884;8.666;2022-11-15T14:51:01;3.77;;;2.83;;
3225;SDS011;1625;49.884;8.666;2022-11-15T14:53:27;4.10;;;2.47;;
3225;SDS011;1625;49.884;8.666;2022-11-15T14:55:54;3.00;;;2.63;;
3225;SDS011;1625;49.884;8.666;2022-11-15T14:58:22;4.37;;;3.33;;
3225;SDS011;1625;49.884;8.666;2022-11-15T15:00:48;3.80;;;2.93;;
3225;SDS011;1625;49.884;8.666;2022-11-15T15:03:15;2.90;;;2.60;;
3225;SDS011;1625;49.884;8.666;2022-11-15T15:05:42;6.20;;;3.27;;
3225;SDS011;1625;49.884;8.666;2022-11-15T15:08:12;3.20;;;2.80;;
3225;SDS011;1625;49.884;8.666;2022-11-15T15:10:43;3.17;;;2.87;;
3225;SDS011;1625;49.884;8.666;2022-11-15T15:13:28;2.90;;;2.60;;
3225;SDS011;1625;49.884;8.666;2022-11-15T15:16:02;3.33;;;2.77;;
3225;SDS011;1625;49.884;8.666;2022-11-15T15:18:42;4.63;;;2.80;;
3225;SDS011;1625;49.884;8.666;2022-11-15T15:21:24;3.23;;;2.73;;
3225;SDS011;1625;49.884;8.666;2022-11-15T15:24:07;3.50;;;3.20;;
3225;SDS011;1625;49.884;8.666;2022-11-15T15:27:20;3.50;;;2.90;;
3225;SDS011;1625;49.884;8.666;2022-11-15T15:30:09;3.43;;;3.17;;
3225;SDS011;1625;49.884;8.666;2022-11-15T15:33:11;3.47;;;3.17;;
3225;SDS011;1625;49.884;8.666;2022-11-15T15:35:39;3.23;;;2.97;;
3225;SDS011;1625;49.884;8.666;2022-11-15T15:38:08;3.60;;;3.30;;
3225;SDS011;1625;49.884;8.666;2022-11-15T15:40:38;3.20;;;2.90;;
3225;SDS011;1625;49.884;8.666;2022-11-15T15:43:07;3.43;;;3.13;;
3225;SDS011;1625;49.884;8.666;2022-11-15T15:45:40;3.23;;;2.93;;
3225;SDS011;1625;49.884;8.666;2022-11-15T15:48:58;2.80;;;2.60;;
3225;SDS011;1625;49.884;8.666;2022-11-15T15:51:26;3.40;;;3.10;;
3225;SDS011;1625;49.884;8.666;2022-11-15T15:54:08;3.27;;;2.73;;
3225;SDS011;1625;49.884;8.666;2022-11-15T15:56:35;3.50;;;3.10;;
3225;SDS011;1625;49.884;8.666;2022-11-15T15:59:04;4.57;;;3.50;;
3225;SDS011;1625;49.884;8.666;2022-11-15T16:01:30;9.03;;;3.30;;
3225;SDS011;1625;49.884;8.666;2022-11-15T16:03:56;3.47;;;3.20;;
3225;SDS011;1625;49.884;8.666;2022-11-15T16:06:31;3.10;;;2.90;;
3225;SDS011;1625;49.884;8.666;2022-11-15T16:09:03;3.13;;;2.83;;
3225;SDS011;1625;49.884;8.666;2022-11-15T16:12:07;2.97;;;2.77;;
3225;SDS011;1625;49.884;8.666;2022-11-15T16:14:43;3.60;;;2.97;;
3225;SDS011;1625;49.884;8.666;2022-11-15T16:17:32;4.63;;;3.60;;
3225;SDS011;1625;49.884;8.666;2022-11-15T16:20:15;3.60;;;3.30;;
3225;SDS011;1625;49.884;8.666;2022-11-15T16:23:05;3.73;;;3.43;;
3225;SDS011;1625;49.884;8.666;2022-11-15T16:25:36;4.23;;;3.87;;
3225;SDS011;1625;49.884;8.666;2022-11-15T16:31:09;2.80;;;2.60;;
3225;SDS011;1625;49.884;8.666;2022-11-15T16:33:42;3.50;;;3.20;;
3225;SDS011;1625;49.884;8.666;2022-11-15T16:36:18;2.70;;;2.50;;
3225;SDS011;1625;49.884;8.666;2022-11-15T16:38:52;3.00;;;2.50;;
3225;SDS011;1625;49.884;8.666;2022-11-15T16:41:20;6.13;;;3.20;;
3225;SDS011;1625;49.884;8.666;2022-11-15T16:43:49;3.00;;;2.70;;
3225;SDS011;1625;49.884;8.666;2022-11-15T16:46:19;3.90;;;3.27;;
3225;SDS011;1625;49.884;8.666;2022-11-15T16:48:48;6.17;;;2.60;;
3225;SDS011;1625;49.884;8.666;2022-11-15T16:51:19;3.37;;;3.17;;
3225;SDS011;1625;49.884;8.666;2022-11-15T16:53:45;3.90;;;2.50;;
3225;SDS011;1625;49.884;8.666;2022-11-15T16:56:23;5.20;;;2.50;;
3225;SDS011;1625;49.884;8.666;2022-11-15T16:58:52;2.80;;;2.60;;
3225;SDS011;1625;49.884;8.666;2022-11-15T17:01:28;3.40;;;2.57;;
3225;SDS011;1625;49.884;8.666;2022-11-15T17:03:56;2.40;;;2.20;;
3225;SDS011;1625;49.884;8.666;2022-11-15T17:06:22;2.67;;;2.47;;
3225;SDS011;1625;49.884;8.666;2022-11-15T17:08:48;2.30;;;2.10;;
3225;SDS011;1625;49.884;8.666;2022-11-15T17:11:17;2.30;;;2.10;;
3225;SDS011;1625;49.884;8.666;2022-11-15T17:13:45;2.83;;;2.60;;
3225;SDS011;1625;49.884;8.666;2022-11-15T17:16:13;3.50;;;2.37;;
3225;SDS011;1625;49.884;8.666;2022-11-15T17:18:41;2.90;;;2.60;;
3225;SDS011;1625;49.884;8.666;2022-11-15T17:21:13;4.13;;;2.43;;
3225;SDS011;1625;49.884;8.666;2022-11-15T17:23:39;3.10;;;2.90;;
3225;SDS011;1625;49.884;8.666;2022-11-15T17:26:05;3.10;;;2.80;;
3225;SDS011;1625;49.884;8.666;2022-11-15T17:28:31;2.70;;;2.50;;
3225;SDS011;1625;49.884;8.666;2022-11-15T17:30:58;2.50;;;2.30;;
3225;SDS011;1625;49.884;8.666;2022-11-15T17:33:24;3.03;;;2.73;;
3225;SDS011;1625;49.884;8.666;2022-11-15T17:35:57;2.60;;;2.40;;
3225;SDS011;1625;49.884;8.666;2022-11-15T17:38:25;3.67;;;3.13;;
3225;SDS011;1625;49.884;8.666;2022-11-15T17:41:01;3.13;;;2.63;;
3225;SDS011;1625;49.884;8.666;2022-11-15T17:43:32;2.93;;;2.33;;
3225;SDS011;1625;49.884;8.666;2022-11-15T17:46:08;2.80;;;2.60;;
3225;SDS011;1625;49.884;8.666;2022-11-15T17:48:39;4.23;;;2.73;;
3225;SDS011;1625;49.884;8.666;2022-11-15T17:51:22;2.90;;;2.60;;
3225;SDS011;1625;49.884;8.666;2022-11-15T17:54:07;2.80;;;2.23;;
3225;SDS011;1625;49.884;8.666;2022-11-15T17:56:52;3.00;;;2.80;;
3225;SDS011;1625;49.884;8.666;2022-11-15T17:59:18;4.30;;;2.97;;
3225;SDS011;1625;49.884;8.666;2022-11-15T18:01:43;3.00;;;2.70;;
3225;SDS011;1625;49.884;8.666;2022-11-15T18:04:09;2.97;;;2.40;;
3225;SDS011;1625;49.884;8.666;2022-11-15T18:06:35;3.10;;;2.80;;
3225;SDS011;1625;49.884;8.666;2022-11-15T18:09:02;2.80;;;2.47;;
3225;SDS011;1625;49.884;8.666;2022-11-15T18:11:29;4.27;;;2.53;;
3225;SDS011;1625;49.884;8.666;2022-11-15T18:14:12;3.73;;;3.10;;
3225;SDS011;1625;49.884;8.666;2022-11-15T18:16:38;5.40;;;3.30;;
3225;SDS011;1625;49.884;8.666;2022-11-15T18:19:05;4.07;;;3.67;;
3225;SDS011;1625;49.884;8.666;2022-11-15T18:21:35;3.23;;;2.93;;
3225;SDS011;1625;49.884;8.666;2022-11-15T18:24:21;4.33;;;2.80;;
3225;SDS011;1625;49.884;8.666;2022-11-15T18:26:54;3.50;;;3.20;;
3225;SDS011;1625;49.884;8.666;2022-11-15T18:29:20;3.30;;;3.00;;
3225;SDS011;1625;49.884;8.666;2022-11-15T18:31:51;3.87;;;3.43;;
3225;SDS011;1625;49.884;8.666;2022-11-15T18:34:56;3.37;;;3.17;;
3225;SDS011;1625;49.884;8.666;2022-11-15T18:37:30;3.53;;;3.20;;
3225;SDS011;1625;49.884;8.666;2022-11-15T18:45:38;5.57;;;3.63;;
3225;SDS011;1625;49.884;8.666;2022-11-15T18:48:17;3.27;;;2.97;;
3225;SDS011;1625;49.884;8.666;2022-11-15T18:51:19;3.67;;;3.37;;
3225;SDS011;1625;49.884;8.666;2022-11-15T18:53:46;4.07;;;3.63;;
3225;SDS011;1625;49.884;8.666;2022-11-15T18:56:16;4.53;;;3.30;;
3225;SDS011;1625;49.884;8.666;2022-11-15T18:58:50;4.10;;;3.40;;
3225;SDS011;1625;49.884;8.666;2022-11-15T19:01:19;6.37;;;3.33;;
3225;SDS011;1625;49.884;8.666;2022-11-15T19:03:46;7.13;;;3.77;;
3225;SDS011;1625;49.884;8.666;2022-11-15T19:06:17;7.43;;;4.20;;
3225;SDS011;1625;49.884;8.666;2022-11-15T19:08:51;7.13;;;4.20;;
3225;SDS011;1625;49.884;8.666;2022-11-15T19:13:45;4.83;;;3.90;;
3225;SDS011;1625;49.884;8.666;2022-11-15T19:16:13;5.53;;;3.23;;
3225;SDS011;1625;49.884;8.666;2022-11-15T19:18:41;4.63;;;4.23;;
3225;SDS011;1625;49.884;8.666;2022-11-15T19:21:08;4.43;;;3.83;;
3225;SDS011;1625;49.884;8.666;2022-11-15T19:23:35;7.00;;;3.70;;
3225;SDS011;1625;49.884;8.666;2022-11-15T19:26:03;4.67;;;3.77;;
3225;SDS011;1625;49.884;8.666;2022-11-15T19:28:30;5.27;;;3.80;;
3225;SDS011;1625;49.884;8.666;2022-11-15T19:31:12;4.47;;;4.07;;
3225;SDS011;1625;49.884;8.666;2022-11-15T19:33:39;4.10;;;3.80;;
3225;SDS011;1625;49.884;8.666;2022-11-15T19:36:17;5.33;;;4.57;;
3225;SDS011;1625;49.884;8.666;2022-11-15T19:38:54;4.57;;;4.27;;
3225;SDS011;1625;49.884;8.666;2022-11-15T19:41:21;4.90;;;4.50;;
3225;SDS011;1625;49.884;8.666;2022-11-15T19:43:48;4.77;;;4.37;;
3225;SDS011;1625;49.884;8.666;2022-11-15T19:46:15;4.83;;;4.33;;
3225;SDS011;1625;49.884;8.666;2022-11-15T19:48:42;7.07;;;5.10;;
3225;SDS011;1625;49.884;8.666;2022-11-15T19:51:10;5.40;;;4.90;;
3225;SDS011;1625;49.884;8.666;2022-11-15T19:53:39;5.70;;;5.20;;
3225;SDS011;1625;49.884;8.666;2022-11-15T19:56:07;5.57;;;5.07;;
3225;SDS011;1625;49.884;8.666;2022-11-15T19:58:35;5.50;;;5.10;;
3225;SDS011;1625;49.884;8.666;2022-11-15T20:01:05;5.00;;;4.60;;
3225;SDS011;1625;49.884;8.666;2022-11-15T20:03:32;5.40;;;4.90;;
3225;SDS011;1625;49.884;8.666;2022-11-15T20:06:09;5.40;;;5.00;;
3225;SDS011;1625;49.884;8.666;2022-11-15T20:08:37;5.67;;;5.00;;
3225;SDS011;1625;49.884;8.666;2022-11-15T20:11:09;6.30;;;4.90;;
3225;SDS011;1625;49.884;8.666;2022-11-15T20:13:39;5.20;;;4.77;;
3225;SDS011;1625;49.884;8.666;2022-11-15T20:16:05;5.30;;;4.90;;
3225;SDS011;1625;49.884;8.666;2022-11-15T20:18:31;5.00;;;4.60;;
3225;SDS011;1625;49.884;8.666;2022-11-15T20:20:58;6.20;;;5.07;;
3225;SDS011;1625;49.884;8.666;2022-11-15T20:23:24;5.30;;;4.90;;
3225;SDS011;1625;49.884;8.666;2022-11-15T20:25:51;4.80;;;4.40;;
3225;SDS011;1625;49.884;8.666;2022-11-15T20:28:18;5.40;;;5.00;;
3225;SDS011;1625;49.884;8.666;2022-11-15T20:30:46;7.00;;;5.77;;
3225;SDS011;1625;49.884;8.666;2022-11-15T20:33:14;5.27;;;4.80;;
3225;SDS011;1625;49.884;8.666;2022-11-15T20:35:41;5.67;;;5.17;;
3225;SDS011;1625;49.884;8.666;2022-11-15T20:38:07;6.17;;;5.33;;
3225;SDS011;1625;49.884;8.666;2022-11-15T20:40:39;5.30;;;4.70;;
3225;SDS011;1625;49.884;8.666;2022-11-15T20:43:05;5.40;;;4.90;;
3225;SDS011;1625;49.884;8.666;2022-11-15T20:45:34;6.13;;;5.63;;
3225;SDS011;1625;49.884;8.666;2022-11-15T20:48:00;6.27;;;5.77;;
3225;SDS011;1625;49.884;8.666;2022-11-15T20:50:25;5.60;;;5.10;;
3225;SDS011;1625;49.884;8.666;2022-11-15T20:52:52;7.50;;;6.53;;
3225;SDS011;1625;49.884;8.666;2022-11-15T20:55:19;6.73;;;6.13;;
3225;SDS011;1625;49.884;8.666;2022-11-15T20:57:45;6.27;;;5.60;;
3225;SDS011;1625;49.884;8.666;2022-11-15T21:00:12;5.90;;;5.43;;
3225;SDS011;1625;49.884;8.666;2022-11-15T21:02:38;6.23;;;5.63;;
3225;SDS011;1625;49.884;8.666;2022-11-15T21:05:04;7.03;;;6.43;;
3225;SDS011;1625;49.884;8.666;2022-11-15T21:07:30;6.40;;;5.73;;
3225;SDS011;1625;49.884;8.666;2022-11-15T21:09:55;6.80;;;6.10;;
3225;SDS011;1625;49.884;8.666;2022-11-15T21:12:40;6.43;;;5.83;;
3225;SDS011;1625;49.884;8.666;2022-11-15T21:15:06;7.80;;;7.10;;
3225;SDS011;1625;49.884;8.666;2022-11-15T21:17:32;8.40;;;7.50;;
3225;SDS011;1625;49.884;8.666;2022-11-15T21:19:58;6.60;;;6.00;;
3225;SDS011;1625;49.884;8.666;2022-11-15T21:22:24;7.10;;;6.50;;
3225;SDS011;1625;49.884;8.666;2022-11-15T21:24:49;7.10;;;6.43;;
3225;SDS011;1625;49.884;8.666;2022-11-15T21:27:15;8.23;;;7.30;;
3225;SDS011;1625;49.884;8.666;2022-11-15T21:29:42;8.10;;;7.30;;